Osceola, IA

6:39 AM CDT on July 25, 2014 (GMT -0500)
Osceola Municipal (KI75) Elev 1109 ft | 41.05 °N, 93.69 °W | Change Station

Current weather conditions updated 24 minutes ago

Overcast
Overcast
67 °F
Feels Like 67 °F
N
10
Wind Variable Wind from East
Gusts 18 mph

Today is forecast to be Much Warmer than yesterday. Cloudy with rain in the morning.

Today
High -- | Low -- °F
--% Chance of Precip.
Yesterday
High -- | Low -- °F
Precip. -- in
6:04 AM 8:38 PM
Waning Crescent, 2% visible
Pressure 29.98 in
Visibility 10.0 miles
Clouds Overcast 3400 ft
Dew Point 57 °F
Humidity 71%
Rainfall 0.00 in
Snow Depth Not available.
UV 0 out of 12
Pollen 5.70 out of 12
Air Quality Not available.
Flu Activity Not available.
METAR KI75 251115Z AUTO 08009G16KT 10SM OVC034 19/14 A2998 RMK AO2 T01920139

More Conditions Fewer Conditions

Pressure 29.98 in
Visibility 10.0 miles
Clouds Overcast 3400 ft
Dew Point 57 °F
Humidity 71%
Rainfall 0.00 in
Snow Depth Not available.
UV 0 out of 12
Pollen 5.70 out of 12
Air Quality Not available.
Flu Activity Not available.
METAR KI75 251115Z AUTO 08009G16KT 10SM OVC034 19/14 A2998 RMK AO2 T01920139

More Conditions Fewer Conditions

10-Day Weather Forecast

Almanac

Astronomy

Jul. 25, 2014 Rise Set
Actual Time 6:04 AM CDT 8:38 PM CDT
Civil Twilight 5:32 AM CDT 9:09 PM CDT
Nautical Twilight 4:53 AM CDT 9:49 PM CDT
Astronomical Twilight 4:08 AM CDT 10:33 PM CDT
Moon 5:04 AM CDT 7:35 PM CDT
Length of Visible Light 15h 37m
Length of Day
14h 33m
Tomorrow will be 1m 51s shorter.
Waning Crescent, 2% of the Moon is Illuminated
Today
Waning Crescent
Jul 26
New
Aug 3
First Quarter
Aug 10
Full
Aug 17
Last Quarter

Today's Extremes

State Highs State Lows

Community

WunderPhotos

Upload Photos

1,737,289 photos uploaded!

Nearby

Snow Depth

Station Depth Elevation
No new snow has been reported.

Earthquake Activity

City Distance Mag. Time & Date
No recent earthquake activity has been reported nearby.
Minimum magnitude displayed is 2.5.

Coastal Water Temperatures

Place Temperature
No Stations Reporting

Nearby Weather Stations

Station Location Temp. Dew Point Humidity Wind Precip. Elev Updated Type
House in Medora, New Virginia, IA 64.0 °F 56 °F 74% ENE  at  2.9 mph 0.00 in / hr 1033 ft 6:39 AM CDT Rapid Fire
MesoWest CHARIT , Chariton, IA 65 °F - - North  at  - 0.00 in / hr 1018 ft 5:20 AM CDT MADIS

Show More Stations Show Fewer Stations